sensor_id;sensor_type;location;lat;lon;timestamp;temperature;humidity
6054;DHT22;3055;50.886;14.814;2023-07-13T00:01:05;20.20;25.60
6054;DHT22;3055;50.886;14.814;2023-07-13T00:03:32;20.20;99.90
6054;DHT22;3055;50.886;14.814;2023-07-13T00:06:02;20.10;85.20
6054;DHT22;3055;50.886;14.814;2023-07-13T00:08:31;20.20;95.50
6054;DHT22;3055;50.886;14.814;2023-07-13T00:10:59;20.30;99.90
6054;DHT22;3055;50.886;14.814;2023-07-13T00:13:26;20.30;99.90
6054;DHT22;3055;50.886;14.814;2023-07-13T00:15:54;20.40;99.90
6054;DHT22;3055;50.886;14.814;2023-07-13T00:18:22;20.40;99.90
6054;DHT22;3055;50.886;14.814;2023-07-13T00:20:49;20.40;99.90
6054;DHT22;3055;50.886;14.814;2023-07-13T00:23:17;20.20;1.00
6054;DHT22;3055;50.886;14.814;2023-07-13T00:25:44;20.10;1.00
6054;DHT22;3055;50.886;14.814;2023-07-13T00:28:12;19.90;1.00
6054;DHT22;3055;50.886;14.814;2023-07-13T00:30:39;19.90;1.00
6054;DHT22;3055;50.886;14.814;2023-07-13T00:33:06;19.90;1.00
6054;DHT22;3055;50.886;14.814;2023-07-13T00:35:33;19.90;1.00
6054;DHT22;3055;50.886;14.814;2023-07-13T00:38:00;19.90;99.90
6054;DHT22;3055;50.886;14.814;2023-07-13T00:40:29;20.00;1.00
6054;DHT22;3055;50.886;14.814;2023-07-13T00:42:58;20.10;56.00
6054;DHT22;3055;50.886;14.814;2023-07-13T00:48:33;20.10;99.90
6054;DHT22;3055;50.886;14.814;2023-07-13T00:51:01;20.10;99.90
6054;DHT22;3055;50.886;14.814;2023-07-13T00:53:30;20.20;1.00
6054;DHT22;3055;50.886;14.814;2023-07-13T00:56:04;20.30;99.90
6054;DHT22;3055;50.886;14.814;2023-07-13T00:58:32;20.20;99.90
6054;DHT22;3055;50.886;14.814;2023-07-13T01:01:00;20.10;99.90
6054;DHT22;3055;50.886;14.814;2023-07-13T01:03:27;20.20;99.90
6054;DHT22;3055;50.886;14.814;2023-07-13T01:05:55;20.20;1.00
6054;DHT22;3055;50.886;14.814;2023-07-13T01:08:22;20.20;1.00
6054;DHT22;3055;50.886;14.814;2023-07-13T01:10:54;20.20;1.00
6054;DHT22;3055;50.886;14.814;2023-07-13T01:13:22;20.20;1.00
6054;DHT22;3055;50.886;14.814;2023-07-13T01:15:51;20.20;1.00
6054;DHT22;3055;50.886;14.814;2023-07-13T01:18:20;20.20;99.90
6054;DHT22;3055;50.886;14.814;2023-07-13T01:20:53;20.20;99.90
6054;DHT22;3055;50.886;14.814;2023-07-13T01:23:20;20.30;99.90
6054;DHT22;3055;50.886;14.814;2023-07-13T01:25:48;20.40;99.90
6054;DHT22;3055;50.886;14.814;2023-07-13T01:28:15;20.50;99.90
6054;DHT22;3055;50.886;14.814;2023-07-13T01:30:43;20.40;99.90
6054;DHT22;3055;50.886;14.814;2023-07-13T01:33:12;20.40;99.90
6054;DHT22;3055;50.886;14.814;2023-07-13T01:35:39;20.40;99.90
6054;DHT22;3055;50.886;14.814;2023-07-13T01:38:09;20.30;1.00
6054;DHT22;3055;50.886;14.814;2023-07-13T01:40:37;20.20;1.00
6054;DHT22;3055;50.886;14.814;2023-07-13T01:43:05;20.00;99.90
6054;DHT22;3055;50.886;14.814;2023-07-13T01:45:32;20.00;1.00
6054;DHT22;3055;50.886;14.814;2023-07-13T01:47:59;19.80;1.00
6054;DHT22;3055;50.886;14.814;2023-07-13T01:50:27;19.60;99.90
6054;DHT22;3055;50.886;14.814;2023-07-13T01:52:54;19.50;99.90
6054;DHT22;3055;50.886;14.814;2023-07-13T01:55:23;19.50;99.90
6054;DHT22;3055;50.886;14.814;2023-07-13T01:57:50;19.50;99.90
6054;DHT22;3055;50.886;14.814;2023-07-13T02:00:16;19.40;99.90
6054;DHT22;3055;50.886;14.814;2023-07-13T02:02:43;19.30;99.90
6054;DHT22;3055;50.886;14.814;2023-07-13T02:05:11;19.30;99.90
6054;DHT22;3055;50.886;14.814;2023-07-13T02:07:38;19.30;1.00
6054;DHT22;3055;50.886;14.814;2023-07-13T02:10:06;19.20;1.00
6054;DHT22;3055;50.886;14.814;2023-07-13T02:12:36;19.30;99.90
6054;DHT22;3055;50.886;14.814;2023-07-13T02:15:04;19.40;22.80
6054;DHT22;3055;50.886;14.814;2023-07-13T02:17:32;19.50;99.90
6054;DHT22;3055;50.886;14.814;2023-07-13T02:19:59;19.60;1.00
6054;DHT22;3055;50.886;14.814;2023-07-13T02:22:26;19.60;1.00
6054;DHT22;3055;50.886;14.814;2023-07-13T02:24:53;19.60;1.00
6054;DHT22;3055;50.886;14.814;2023-07-13T02:27:20;19.50;36.30
6054;DHT22;3055;50.886;14.814;2023-07-13T02:29:48;19.30;99.90
6054;DHT22;3055;50.886;14.814;2023-07-13T02:32:17;19.00;1.00
6054;DHT22;3055;50.886;14.814;2023-07-13T02:34:44;18.80;1.00
6054;DHT22;3055;50.886;14.814;2023-07-13T02:37:11;18.60;1.00
6054;DHT22;3055;50.886;14.814;2023-07-13T02:39:39;18.40;1.00
6054;DHT22;3055;50.886;14.814;2023-07-13T02:42:07;18.20;88.80
6054;DHT22;3055;50.886;14.814;2023-07-13T02:44:34;18.00;94.60
6054;DHT22;3055;50.886;14.814;2023-07-13T02:47:02;17.90;99.90
6054;DHT22;3055;50.886;14.814;2023-07-13T02:49:29;17.80;99.90
6054;DHT22;3055;50.886;14.814;2023-07-13T02:51:56;17.80;99.90
6054;DHT22;3055;50.886;14.814;2023-07-13T02:54:23;17.80;99.90
6054;DHT22;3055;50.886;14.814;2023-07-13T02:56:50;17.70;99.90
6054;DHT22;3055;50.886;14.814;2023-07-13T02:59:17;17.70;99.90
6054;DHT22;3055;50.886;14.814;2023-07-13T03:01:44;17.60;99.90
6054;DHT22;3055;50.886;14.814;2023-07-13T03:04:13;17.50;99.90
6054;DHT22;3055;50.886;14.814;2023-07-13T03:06:40;17.60;99.90
6054;DHT22;3055;50.886;14.814;2023-07-13T03:09:07;17.50;99.90
6054;DHT22;3055;50.886;14.814;2023-07-13T03:11:34;17.50;99.90
6054;DHT22;3055;50.886;14.814;2023-07-13T03:14:02;17.40;99.90
6054;DHT22;3055;50.886;14.814;2023-07-13T03:16:29;17.40;99.90
6054;DHT22;3055;50.886;14.814;2023-07-13T03:18:56;17.40;99.90
6054;DHT22;3055;50.886;14.814;2023-07-13T03:21:24;17.50;99.90
6054;DHT22;3055;50.886;14.814;2023-07-13T03:23:51;17.60;99.90
6054;DHT22;3055;50.886;14.814;2023-07-13T03:26:19;17.60;99.90
6054;DHT22;3055;50.886;14.814;2023-07-13T03:28:47;17.50;99.90
6054;DHT22;3055;50.886;14.814;2023-07-13T03:31:16;17.50;99.90
6054;DHT22;3055;50.886;14.814;2023-07-13T03:33:44;17.60;99.90
6054;DHT22;3055;50.886;14.814;2023-07-13T03:36:13;17.70;99.90
6054;DHT22;3055;50.886;14.814;2023-07-13T03:38:43;17.80;99.90
6054;DHT22;3055;50.886;14.814;2023-07-13T03:41:10;17.80;99.90
6054;DHT22;3055;50.886;14.814;2023-07-13T03:43:37;17.70;99.90
6054;DHT22;3055;50.886;14.814;2023-07-13T03:46:04;17.60;99.90
6054;DHT22;3055;50.886;14.814;2023-07-13T03:48:31;17.40;99.90
6054;DHT22;3055;50.886;14.814;2023-07-13T03:50:58;17.20;99.90
6054;DHT22;3055;50.886;14.814;2023-07-13T03:53:25;17.20;99.90
6054;DHT22;3055;50.886;14.814;2023-07-13T03:55:54;17.20;99.90
6054;DHT22;3055;50.886;14.814;2023-07-13T03:58:29;17.20;99.90
6054;DHT22;3055;50.886;14.814;2023-07-13T04:00:58;17.20;99.90
6054;DHT22;3055;50.886;14.814;2023-07-13T04:03:25;17.10;99.90
6054;DHT22;3055;50.886;14.814;2023-07-13T04:05:54;17.00;99.90
6054;DHT22;3055;50.886;14.814;2023-07-13T04:08:25;17.10;99.90
6054;DHT22;3055;50.886;14.814;2023-07-13T04:10:54;17.20;99.90
6054;DHT22;3055;50.886;14.814;2023-07-13T04:13:21;17.20;99.90
6054;DHT22;3055;50.886;14.814;2023-07-13T04:15:48;17.20;99.90
6054;DHT22;3055;50.886;14.814;2023-07-13T04:18:15;17.10;99.90
6054;DHT22;3055;50.886;14.814;2023-07-13T04:20:42;17.10;99.90
6054;DHT22;3055;50.886;14.814;2023-07-13T04:23:09;17.10;99.90
6054;DHT22;3055;50.886;14.814;2023-07-13T04:25:36;17.20;99.90
6054;DHT22;3055;50.886;14.814;2023-07-13T04:28:05;17.20;99.90
6054;DHT22;3055;50.886;14.814;2023-07-13T04:30:32;17.20;99.90
6054;DHT22;3055;50.886;14.814;2023-07-13T04:32:59;17.20;99.90
6054;DHT22;3055;50.886;14.814;2023-07-13T04:35:26;17.20;99.90
6054;DHT22;3055;50.886;14.814;2023-07-13T04:37:54;17.10;99.90
6054;DHT22;3055;50.886;14.814;2023-07-13T04:40:21;17.10;99.90
6054;DHT22;3055;50.886;14.814;2023-07-13T04:42:48;17.10;99.90
6054;DHT22;3055;50.886;14.814;2023-07-13T04:45:16;17.00;99.90
6054;DHT22;3055;50.886;14.814;2023-07-13T04:47:43;17.00;99.90
6054;DHT22;3055;50.886;14.814;2023-07-13T04:50:13;17.00;99.90
6054;DHT22;3055;50.886;14.814;2023-07-13T04:52:45;17.00;99.90
6054;DHT22;3055;50.886;14.814;2023-07-13T04:55:12;17.00;99.90
6054;DHT22;3055;50.886;14.814;2023-07-13T04:57:39;17.10;99.90
6054;DHT22;3055;50.886;14.814;2023-07-13T05:00:07;17.10;99.90
6054;DHT22;3055;50.886;14.814;2023-07-13T05:02:38;17.20;99.90
6054;DHT22;3055;50.886;14.814;2023-07-13T05:05:07;17.20;99.90
6054;DHT22;3055;50.886;14.814;2023-07-13T05:07:34;17.30;99.90
6054;DHT22;3055;50.886;14.814;2023-07-13T05:10:02;17.40;99.90
6054;DHT22;3055;50.886;14.814;2023-07-13T05:12:30;17.40;99.90
6054;DHT22;3055;50.886;14.814;2023-07-13T05:14:57;17.50;99.90
6054;DHT22;3055;50.886;14.814;2023-07-13T05:17:24;17.50;99.90
6054;DHT22;3055;50.886;14.814;2023-07-13T05:19:52;17.60;99.90
6054;DHT22;3055;50.886;14.814;2023-07-13T05:22:19;17.70;99.90
6054;DHT22;3055;50.886;14.814;2023-07-13T05:24:46;17.80;99.90
6054;DHT22;3055;50.886;14.814;2023-07-13T05:27:14;17.90;99.90
6054;DHT22;3055;50.886;14.814;2023-07-13T05:29:40;18.00;99.90
6054;DHT22;3055;50.886;14.814;2023-07-13T05:32:08;18.00;99.90
6054;DHT22;3055;50.886;14.814;2023-07-13T05:34:35;18.10;99.90
6054;DHT22;3055;50.886;14.814;2023-07-13T05:37:03;18.30;99.90
6054;DHT22;3055;50.886;14.814;2023-07-13T05:39:30;18.40;99.90
6054;DHT22;3055;50.886;14.814;2023-07-13T05:41:57;18.60;99.90
6054;DHT22;3055;50.886;14.814;2023-07-13T05:44:24;18.90;99.90
6054;DHT22;3055;50.886;14.814;2023-07-13T05:46:51;19.00;99.90
6054;DHT22;3055;50.886;14.814;2023-07-13T05:49:18;19.10;99.90
6054;DHT22;3055;50.886;14.814;2023-07-13T05:51:46;19.30;99.90
6054;DHT22;3055;50.886;14.814;2023-07-13T05:54:14;19.40;99.90
6054;DHT22;3055;50.886;14.814;2023-07-13T05:56:41;19.40;99.90
6054;DHT22;3055;50.886;14.814;2023-07-13T05:59:08;19.70;99.90
6054;DHT22;3055;50.886;14.814;2023-07-13T06:01:35;19.80;99.90
6054;DHT22;3055;50.886;14.814;2023-07-13T06:04:02;20.00;99.90
6054;DHT22;3055;50.886;14.814;2023-07-13T06:06:29;20.10;99.90
6054;DHT22;3055;50.886;14.814;2023-07-13T06:08:57;20.20;90.40
6054;DHT22;3055;50.886;14.814;2023-07-13T06:11:26;20.10;96.70
6054;DHT22;3055;50.886;14.814;2023-07-13T06:13:55;20.20;60.10
6054;DHT22;3055;50.886;14.814;2023-07-13T06:16:23;20.20;45.90
6054;DHT22;3055;50.886;14.814;2023-07-13T06:18:50;20.20;72.00
6054;DHT22;3055;50.886;14.814;2023-07-13T06:21:19;20.40;72.80
6054;DHT22;3055;50.886;14.814;2023-07-13T06:23:48;20.40;20.60
6054;DHT22;3055;50.886;14.814;2023-07-13T06:26:16;20.40;11.30
6054;DHT22;3055;50.886;14.814;2023-07-13T06:28:45;20.20;5.40
6054;DHT22;3055;50.886;14.814;2023-07-13T06:31:12;20.10;45.60
6054;DHT22;3055;50.886;14.814;2023-07-13T06:33:40;20.10;98.40
6054;DHT22;3055;50.886;14.814;2023-07-13T06:36:08;20.30;99.90
6054;DHT22;3055;50.886;14.814;2023-07-13T06:38:35;20.30;9.10
6054;DHT22;3055;50.886;14.814;2023-07-13T06:41:03;20.30;40.40
6054;DHT22;3055;50.886;14.814;2023-07-13T06:43:31;20.50;78.20
6054;DHT22;3055;50.886;14.814;2023-07-13T06:45:59;20.90;16.30
6054;DHT22;3055;50.886;14.814;2023-07-13T06:48:27;21.20;99.90
6054;DHT22;3055;50.886;14.814;2023-07-13T06:50:54;21.40;1.00
6054;DHT22;3055;50.886;14.814;2023-07-13T06:53:22;21.40;1.00
6054;DHT22;3055;50.886;14.814;2023-07-13T06:55:49;21.70;1.00
6054;DHT22;3055;50.886;14.814;2023-07-13T06:58:17;21.80;99.90
6054;DHT22;3055;50.886;14.814;2023-07-13T07:00:45;21.90;99.90
6054;DHT22;3055;50.886;14.814;2023-07-13T07:03:14;21.90;99.90
6054;DHT22;3055;50.886;14.814;2023-07-13T07:05:41;21.80;32.60
6054;DHT22;3055;50.886;14.814;2023-07-13T07:08:08;21.50;99.90
6054;DHT22;3055;50.886;14.814;2023-07-13T07:10:35;21.70;99.90
6054;DHT22;3055;50.886;14.814;2023-07-13T07:13:03;22.00;99.90
6054;DHT22;3055;50.886;14.814;2023-07-13T07:15:30;22.20;92.90
6054;DHT22;3055;50.886;14.814;2023-07-13T07:17:57;22.40;18.70
6054;DHT22;3055;50.886;14.814;2023-07-13T07:20:26;22.40;1.00
6054;DHT22;3055;50.886;14.814;2023-07-13T07:22:53;22.50;1.00
6054;DHT22;3055;50.886;14.814;2023-07-13T07:25:20;22.50;1.00
6054;DHT22;3055;50.886;14.814;2023-07-13T07:27:47;22.70;1.00
6054;DHT22;3055;50.886;14.814;2023-07-13T07:30:14;22.80;1.00
6054;DHT22;3055;50.886;14.814;2023-07-13T07:32:41;22.90;1.00
6054;DHT22;3055;50.886;14.814;2023-07-13T07:35:08;23.10;1.00
6054;DHT22;3055;50.886;14.814;2023-07-13T07:37:37;23.10;99.90
6054;DHT22;3055;50.886;14.814;2023-07-13T07:40:05;23.20;99.90
6054;DHT22;3055;50.886;14.814;2023-07-13T07:42:33;23.30;99.90
6054;DHT22;3055;50.886;14.814;2023-07-13T07:45:00;23.50;99.90
6054;DHT22;3055;50.886;14.814;2023-07-13T07:47:27;23.50;99.90
6054;DHT22;3055;50.886;14.814;2023-07-13T07:49:54;23.60;99.90
6054;DHT22;3055;50.886;14.814;2023-07-13T07:52:21;23.80;99.90
6054;DHT22;3055;50.886;14.814;2023-07-13T07:54:50;23.80;99.90
6054;DHT22;3055;50.886;14.814;2023-07-13T07:57:17;24.00;99.90
6054;DHT22;3055;50.886;14.814;2023-07-13T07:59:44;24.10;99.90
6054;DHT22;3055;50.886;14.814;2023-07-13T08:02:11;24.10;99.90
6054;DHT22;3055;50.886;14.814;2023-07-13T08:04:38;24.00;99.90
6054;DHT22;3055;50.886;14.814;2023-07-13T08:07:05;24.20;99.90
6054;DHT22;3055;50.886;14.814;2023-07-13T08:09:32;24.50;99.90
6054;DHT22;3055;50.886;14.814;2023-07-13T08:12:01;24.60;99.90
6054;DHT22;3055;50.886;14.814;2023-07-13T08:14:28;24.80;99.90
6054;DHT22;3055;50.886;14.814;2023-07-13T08:16:55;24.70;92.30
6054;DHT22;3055;50.886;14.814;2023-07-13T08:19:22;24.70;97.10
6054;DHT22;3055;50.886;14.814;2023-07-13T08:21:49;24.60;47.90
6054;DHT22;3055;50.886;14.814;2023-07-13T08:24:16;24.80;66.60
6054;DHT22;3055;50.886;14.814;2023-07-13T08:26:44;25.00;66.70
6054;DHT22;3055;50.886;14.814;2023-07-13T08:29:13;25.10;55.50
6054;DHT22;3055;50.886;14.814;2023-07-13T08:31:40;25.10;50.20
6054;DHT22;3055;50.886;14.814;2023-07-13T08:34:07;25.40;35.40
6054;DHT22;3055;50.886;14.814;2023-07-13T08:36:34;25.40;1.00
6054;DHT22;3055;50.886;14.814;2023-07-13T08:39:02;25.60;1.00
6054;DHT22;3055;50.886;14.814;2023-07-13T08:41:29;25.60;1.00
6054;DHT22;3055;50.886;14.814;2023-07-13T08:43:58;25.60;1.00
6054;DHT22;3055;50.886;14.814;2023-07-13T08:46:32;25.60;1.00
6054;DHT22;3055;50.886;14.814;2023-07-13T08:49:04;25.40;1.00
6054;DHT22;3055;50.886;14.814;2023-07-13T08:51:38;25.40;1.00
6054;DHT22;3055;50.886;14.814;2023-07-13T08:54:17;25.50;1.00
6054;DHT22;3055;50.886;14.814;2023-07-13T08:56:45;25.40;1.00
6054;DHT22;3055;50.886;14.814;2023-07-13T08:59:15;25.60;1.00
6054;DHT22;3055;50.886;14.814;2023-07-13T09:01:58;25.80;1.00
6054;DHT22;3055;50.886;14.814;2023-07-13T09:04:30;25.90;1.00
6054;DHT22;3055;50.886;14.814;2023-07-13T09:07:05;25.90;1.00
6054;DHT22;3055;50.886;14.814;2023-07-13T09:09:44;25.70;1.00
6054;DHT22;3055;50.886;14.814;2023-07-13T09:12:18;25.70;1.00
6054;DHT22;3055;50.886;14.814;2023-07-13T09:14:49;25.60;1.00
6054;DHT22;3055;50.886;14.814;2023-07-13T09:17:23;25.90;1.00
6054;DHT22;3055;50.886;14.814;2023-07-13T09:19:55;26.20;1.00
6054;DHT22;3055;50.886;14.814;2023-07-13T09:22:24;26.50;1.00
6054;DHT22;3055;50.886;14.814;2023-07-13T09:25:00;26.80;1.00
6054;DHT22;3055;50.886;14.814;2023-07-13T09:27:33;26.80;1.00
6054;DHT22;3055;50.886;14.814;2023-07-13T09:30:18;26.70;1.00
6054;DHT22;3055;50.886;14.814;2023-07-13T09:32:51;26.70;1.00
6054;DHT22;3055;50.886;14.814;2023-07-13T09:35:22;26.90;1.00
6054;DHT22;3055;50.886;14.814;2023-07-13T09:37:51;27.20;1.00
6054;DHT22;3055;50.886;14.814;2023-07-13T09:40:23;27.20;1.00
6054;DHT22;3055;50.886;14.814;2023-07-13T09:42:52;27.30;1.00
6054;DHT22;3055;50.886;14.814;2023-07-13T09:45:27;27.20;1.00
6054;DHT22;3055;50.886;14.814;2023-07-13T09:48:04;27.40;1.00
6054;DHT22;3055;50.886;14.814;2023-07-13T09:50:32;27.80;1.00
6054;DHT22;3055;50.886;14.814;2023-07-13T09:53:01;27.70;1.00
6054;DHT22;3055;50.886;14.814;2023-07-13T09:55:31;27.60;1.00
6054;DHT22;3055;50.886;14.814;2023-07-13T09:58:04;27.40;1.00
6054;DHT22;3055;50.886;14.814;2023-07-13T10:00:32;26.80;1.00
6054;DHT22;3055;50.886;14.814;2023-07-13T10:03:09;26.50;1.00
6054;DHT22;3055;50.886;14.814;2023-07-13T10:05:43;26.40;1.00
6054;DHT22;3055;50.886;14.814;2023-07-13T10:08:24;26.50;1.00
6054;DHT22;3055;50.886;14.814;2023-07-13T10:10:57;26.60;1.00
6054;DHT22;3055;50.886;14.814;2023-07-13T10:13:29;26.70;1.00
6054;DHT22;3055;50.886;14.814;2023-07-13T10:15:59;26.80;1.00
6054;DHT22;3055;50.886;14.814;2023-07-13T10:18:28;27.20;1.00
6054;DHT22;3055;50.886;14.814;2023-07-13T10:21:08;27.40;1.00
6054;DHT22;3055;50.886;14.814;2023-07-13T10:23:37;27.60;1.00
6054;DHT22;3055;50.886;14.814;2023-07-13T10:26:06;27.60;1.00
6054;DHT22;3055;50.886;14.814;2023-07-13T10:28:37;27.70;1.00
6054;DHT22;3055;50.886;14.814;2023-07-13T10:31:12;27.70;1.00
6054;DHT22;3055;50.886;14.814;2023-07-13T10:33:42;27.60;1.00
6054;DHT22;3055;50.886;14.814;2023-07-13T10:36:19;27.60;1.00
6054;DHT22;3055;50.886;14.814;2023-07-13T10:38:50;27.70;1.00
6054;DHT22;3055;50.886;14.814;2023-07-13T10:41:20;27.80;1.00
6054;DHT22;3055;50.886;14.814;2023-07-13T10:43:51;27.90;1.00
6054;DHT22;3055;50.886;14.814;2023-07-13T10:46:22;28.30;1.00
6054;DHT22;3055;50.886;14.814;2023-07-13T10:48:54;28.20;1.00
6054;DHT22;3055;50.886;14.814;2023-07-13T10:51:22;28.20;1.00
6054;DHT22;3055;50.886;14.814;2023-07-13T10:54:14;28.40;1.00
6054;DHT22;3055;50.886;14.814;2023-07-13T10:56:43;28.60;1.00
6054;DHT22;3055;50.886;14.814;2023-07-13T10:59:12;28.30;1.00
6054;DHT22;3055;50.886;14.814;2023-07-13T11:01:50;28.20;1.00
6054;DHT22;3055;50.886;14.814;2023-07-13T11:04:20;28.20;1.00
6054;DHT22;3055;50.886;14.814;2023-07-13T11:06:50;28.40;1.00
6054;DHT22;3055;50.886;14.814;2023-07-13T11:09:31;28.60;1.00
6054;DHT22;3055;50.886;14.814;2023-07-13T11:11:59;28.60;1.00
6054;DHT22;3055;50.886;14.814;2023-07-13T11:14:30;28.20;1.00
6054;DHT22;3055;50.886;14.814;2023-07-13T11:16:58;28.10;1.00
6054;DHT22;3055;50.886;14.814;2023-07-13T11:19:40;28.00;1.00
6054;DHT22;3055;50.886;14.814;2023-07-13T11:22:17;27.70;1.00
6054;DHT22;3055;50.886;14.814;2023-07-13T11:24:57;27.70;1.00
6054;DHT22;3055;50.886;14.814;2023-07-13T11:27:36;27.80;1.00
6054;DHT22;3055;50.886;14.814;2023-07-13T11:30:24;28.10;1.00
6054;DHT22;3055;50.886;14.814;2023-07-13T11:33:03;28.30;1.00
6054;DHT22;3055;50.886;14.814;2023-07-13T11:35:36;28.70;1.00
6054;DHT22;3055;50.886;14.814;2023-07-13T11:38:13;29.00;1.00
6054;DHT22;3055;50.886;14.814;2023-07-13T11:40:44;29.00;1.00
6054;DHT22;3055;50.886;14.814;2023-07-13T11:43:14;28.80;1.00
6054;DHT22;3055;50.886;14.814;2023-07-13T11:45:42;28.70;1.00
6054;DHT22;3055;50.886;14.814;2023-07-13T11:48:24;28.70;1.00
6054;DHT22;3055;50.886;14.814;2023-07-13T11:50:59;28.50;1.00
6054;DHT22;3055;50.886;14.814;2023-07-13T11:53:30;28.40;1.00
6054;DHT22;3055;50.886;14.814;2023-07-13T11:56:02;28.40;1.00
6054;DHT22;3055;50.886;14.814;2023-07-13T11:58:29;28.40;1.00
6054;DHT22;3055;50.886;14.814;2023-07-13T12:00:59;28.50;1.00
6054;DHT22;3055;50.886;14.814;2023-07-13T12:03:30;28.80;1.00
6054;DHT22;3055;50.886;14.814;2023-07-13T12:06:03;28.90;1.00
6054;DHT22;3055;50.886;14.814;2023-07-13T12:08:37;29.10;1.00
6054;DHT22;3055;50.886;14.814;2023-07-13T12:11:09;29.10;1.00
6054;DHT22;3055;50.886;14.814;2023-07-13T12:13:40;29.20;1.00
6054;DHT22;3055;50.886;14.814;2023-07-13T12:16:15;29.40;1.00
6054;DHT22;3055;50.886;14.814;2023-07-13T12:18:43;29.60;1.00
6054;DHT22;3055;50.886;14.814;2023-07-13T12:21:18;29.80;1.00
6054;DHT22;3055;50.886;14.814;2023-07-13T12:23:48;29.80;1.00
6054;DHT22;3055;50.886;14.814;2023-07-13T12:26:17;29.70;1.00
6054;DHT22;3055;50.886;14.814;2023-07-13T12:28:47;29.80;1.00
6054;DHT22;3055;50.886;14.814;2023-07-13T12:31:26;29.80;1.00
6054;DHT22;3055;50.886;14.814;2023-07-13T12:33:57;29.80;1.00
6054;DHT22;3055;50.886;14.814;2023-07-13T12:36:26;29.90;1.00
6054;DHT22;3055;50.886;14.814;2023-07-13T12:39:14;29.80;1.00
6054;DHT22;3055;50.886;14.814;2023-07-13T12:41:42;29.60;1.00
6054;DHT22;3055;50.886;14.814;2023-07-13T12:44:12;29.30;1.00
6054;DHT22;3055;50.886;14.814;2023-07-13T12:46:52;29.10;1.00
6054;DHT22;3055;50.886;14.814;2023-07-13T12:49:24;28.70;1.00
6054;DHT22;3055;50.886;14.814;2023-07-13T12:51:57;28.30;1.00
6054;DHT22;3055;50.886;14.814;2023-07-13T12:54:27;28.00;1.00
6054;DHT22;3055;50.886;14.814;2023-07-13T12:56:55;27.80;1.00
6054;DHT22;3055;50.886;14.814;2023-07-13T12:59:26;27.70;1.00
6054;DHT22;3055;50.886;14.814;2023-07-13T13:01:56;27.60;1.00
6054;DHT22;3055;50.886;14.814;2023-07-13T13:04:23;27.30;1.00
6054;DHT22;3055;50.886;14.814;2023-07-13T13:07:03;27.10;1.00
6054;DHT22;3055;50.886;14.814;2023-07-13T13:09:32;26.90;1.00
6054;DHT22;3055;50.886;14.814;2023-07-13T13:11:59;27.00;1.00
6054;DHT22;3055;50.886;14.814;2023-07-13T13:14:26;27.00;1.00
6054;DHT22;3055;50.886;14.814;2023-07-13T13:16:53;27.00;1.00
6054;DHT22;3055;50.886;14.814;2023-07-13T13:19:22;27.00;1.00
6054;DHT22;3055;50.886;14.814;2023-07-13T13:21:52;27.00;1.00
6054;DHT22;3055;50.886;14.814;2023-07-13T13:24:23;27.10;1.00
6054;DHT22;3055;50.886;14.814;2023-07-13T13:26:51;27.20;1.00
6054;DHT22;3055;50.886;14.814;2023-07-13T13:29:20;27.30;1.00
6054;DHT22;3055;50.886;14.814;2023-07-13T13:31:49;27.30;1.00
6054;DHT22;3055;50.886;14.814;2023-07-13T13:34:18;27.40;1.00
6054;DHT22;3055;50.886;14.814;2023-07-13T13:36:47;27.50;1.00
6054;DHT22;3055;50.886;14.814;2023-07-13T13:39:22;27.60;1.00
6054;DHT22;3055;50.886;14.814;2023-07-13T13:41:50;28.00;1.00
6054;DHT22;3055;50.886;14.814;2023-07-13T13:44:19;28.20;1.00
6054;DHT22;3055;50.886;14.814;2023-07-13T13:46:48;28.40;1.00
6054;DHT22;3055;50.886;14.814;2023-07-13T13:49:17;28.40;1.00
6054;DHT22;3055;50.886;14.814;2023-07-13T13:51:46;28.30;1.00
6054;DHT22;3055;50.886;14.814;2023-07-13T13:54:14;28.30;1.00
6054;DHT22;3055;50.886;14.814;2023-07-13T13:56:46;28.50;1.00
6054;DHT22;3055;50.886;14.814;2023-07-13T13:59:13;28.80;1.00
6054;DHT22;3055;50.886;14.814;2023-07-13T14:01:42;29.30;1.00
6054;DHT22;3055;50.886;14.814;2023-07-13T14:04:14;29.50;1.00
6054;DHT22;3055;50.886;14.814;2023-07-13T14:06:42;29.50;1.00
6054;DHT22;3055;50.886;14.814;2023-07-13T14:09:11;29.60;1.00
6054;DHT22;3055;50.886;14.814;2023-07-13T14:11:39;29.50;99.90
6054;DHT22;3055;50.886;14.814;2023-07-13T14:14:12;29.40;99.90
6054;DHT22;3055;50.886;14.814;2023-07-13T14:16:41;29.50;99.90
6054;DHT22;3055;50.886;14.814;2023-07-13T14:19:10;29.90;99.90
6054;DHT22;3055;50.886;14.814;2023-07-13T14:21:39;30.50;99.90
6054;DHT22;3055;50.886;14.814;2023-07-13T14:24:07;31.40;99.90
6054;DHT22;3055;50.886;14.814;2023-07-13T14:26:37;32.40;99.90
6054;DHT22;3055;50.886;14.814;2023-07-13T14:29:10;31.90;99.90
6054;DHT22;3055;50.886;14.814;2023-07-13T14:31:39;31.60;99.90
6054;DHT22;3055;50.886;14.814;2023-07-13T14:34:07;32.10;99.90
6054;DHT22;3055;50.886;14.814;2023-07-13T14:36:38;32.90;99.90
6054;DHT22;3055;50.886;14.814;2023-07-13T14:39:12;33.50;99.90
6054;DHT22;3055;50.886;14.814;2023-07-13T14:41:39;34.20;99.90
6054;DHT22;3055;50.886;14.814;2023-07-13T14:44:13;34.90;99.90
6054;DHT22;3055;50.886;14.814;2023-07-13T14:46:40;35.00;99.90
6054;DHT22;3055;50.886;14.814;2023-07-13T14:49:15;35.70;99.90
6054;DHT22;3055;50.886;14.814;2023-07-13T14:51:46;35.20;99.90
6054;DHT22;3055;50.886;14.814;2023-07-13T14:54:13;34.50;99.90
6054;DHT22;3055;50.886;14.814;2023-07-13T14:56:40;33.60;99.90
6054;DHT22;3055;50.886;14.814;2023-07-13T14:59:07;32.50;99.90
6054;DHT22;3055;50.886;14.814;2023-07-13T15:01:36;31.70;99.90
6054;DHT22;3055;50.886;14.814;2023-07-13T15:04:04;31.00;99.90
6054;DHT22;3055;50.886;14.814;2023-07-13T15:06:35;30.50;99.90
6054;DHT22;3055;50.886;14.814;2023-07-13T15:09:18;30.40;99.90
6054;DHT22;3055;50.886;14.814;2023-07-13T15:11:45;31.00;99.90
6054;DHT22;3055;50.886;14.814;2023-07-13T15:14:12;31.70;99.90
6054;DHT22;3055;50.886;14.814;2023-07-13T15:16:41;31.50;99.90
6054;DHT22;3055;50.886;14.814;2023-07-13T15:19:09;30.50;99.90
6054;DHT22;3055;50.886;14.814;2023-07-13T15:21:36;30.10;99.90
6054;DHT22;3055;50.886;14.814;2023-07-13T15:24:04;30.60;99.90
6054;DHT22;3055;50.886;14.814;2023-07-13T15:26:33;31.10;99.90
6054;DHT22;3055;50.886;14.814;2023-07-13T15:29:01;31.70;99.90
6054;DHT22;3055;50.886;14.814;2023-07-13T15:31:28;32.70;99.90
6054;DHT22;3055;50.886;14.814;2023-07-13T15:33:59;32.70;99.90
6054;DHT22;3055;50.886;14.814;2023-07-13T15:36:26;31.90;99.90
6054;DHT22;3055;50.886;14.814;2023-07-13T15:38:55;31.80;99.90
6054;DHT22;3055;50.886;14.814;2023-07-13T15:41:25;31.60;99.90
6054;DHT22;3055;50.886;14.814;2023-07-13T15:43:54;31.10;99.90
6054;DHT22;3055;50.886;14.814;2023-07-13T15:46:24;30.80;99.90
6054;DHT22;3055;50.886;14.814;2023-07-13T15:48:52;31.60;99.90
6054;DHT22;3055;50.886;14.814;2023-07-13T15:51:23;32.20;99.90
6054;DHT22;3055;50.886;14.814;2023-07-13T15:53:53;33.00;99.90
6054;DHT22;3055;50.886;14.814;2023-07-13T15:56:22;33.60;99.90
6054;DHT22;3055;50.886;14.814;2023-07-13T15:58:50;33.20;99.90
6054;DHT22;3055;50.886;14.814;2023-07-13T16:01:17;32.20;99.90
6054;DHT22;3055;50.886;14.814;2023-07-13T16:03:45;31.40;99.90
6054;DHT22;3055;50.886;14.814;2023-07-13T16:06:15;31.00;99.90
6054;DHT22;3055;50.886;14.814;2023-07-13T16:08:44;31.00;99.90